createdAt,value
2023-03-02T00:01:05.647Z,100579.36
2023-03-02T00:03:32.988Z,100575.27
2023-03-02T00:06:00.696Z,100574.50
2023-03-02T00:08:28.285Z,100574.56
2023-03-02T00:10:57.328Z,100579.34
2023-03-02T00:13:24.190Z,100582.65
2023-03-02T00:15:51.787Z,100581.52
2023-03-02T00:18:18.614Z,100574.89
2023-03-02T00:20:45.251Z,100579.09
2023-03-02T00:23:13.185Z,100578.19
2023-03-02T00:25:39.963Z,100576.02
2023-03-02T00:28:06.751Z,100575.13
2023-03-02T00:30:34.568Z,100572.11
2023-03-02T00:33:01.305Z,100567.11
2023-03-02T00:35:28.319Z,100564.45
2023-03-02T00:37:55.517Z,100567.11
2023-03-02T00:40:22.691Z,100564.06
2023-03-02T00:42:49.355Z,100561.95
2023-03-02T00:45:16.619Z,100564.84
2023-03-02T00:47:43.917Z,100564.13
2023-03-02T00:50:11.179Z,100564.01
2023-03-02T00:52:37.987Z,100562.80
2023-03-02T00:55:05.852Z,100562.98
2023-03-02T00:57:32.636Z,100561.91
2023-03-02T01:00:01.870Z,100556.48
2023-03-02T01:02:43.445Z,100546.65
2023-03-02T01:05:12.211Z,100541.37
2023-03-02T01:07:38.791Z,100542.89
2023-03-02T01:10:06.198Z,100549.79
2023-03-02T01:12:33.305Z,100551.05
2023-03-02T01:14:59.956Z,100552.43
2023-03-02T01:17:27.076Z,100545.30
2023-03-02T01:19:55.816Z,100543.42
2023-03-02T01:22:22.946Z,100539.59
2023-03-02T01:24:49.951Z,100535.84
2023-03-02T01:27:16.824Z,100536.54
2023-03-02T01:29:43.524Z,100538.34
2023-03-02T01:32:10.418Z,100537.14
2023-03-02T01:34:37.968Z,100536.75
2023-03-02T01:37:05.285Z,100532.64
2023-03-02T01:39:31.956Z,100530.56
2023-03-02T01:41:58.558Z,100528.81
2023-03-02T01:44:50.947Z,100535.16
2023-03-02T01:47:28.188Z,100541.14
2023-03-02T01:50:24.220Z,100537.13
2023-03-02T01:52:55.212Z,100530.39
2023-03-02T01:55:25.426Z,100526.97
2023-03-02T01:57:54.452Z,100524.69
2023-03-02T02:00:26.723Z,100525.98
2023-03-02T02:03:08.063Z,100524.48
2023-03-02T02:05:38.534Z,100524.34
2023-03-02T02:08:07.096Z,100523.27
2023-03-02T02:10:34.949Z,100525.14
2023-03-02T02:13:02.330Z,100519.92
2023-03-02T02:15:29.368Z,100520.35
2023-03-02T02:17:56.058Z,100522.26
2023-03-02T02:20:39.208Z,100521.67
2023-03-02T02:23:43.565Z,100520.94
2023-03-02T02:26:28.257Z,100521.23
2023-03-02T02:29:07.301Z,100521.89
2023-03-02T02:31:45.874Z,100516.70
2023-03-02T02:34:28.453Z,100515.74
2023-03-02T02:37:02.627Z,100514.95
2023-03-02T02:39:36.874Z,100512.99
2023-03-02T02:42:12.152Z,100514.79
2023-03-02T02:44:39.523Z,100512.63
2023-03-02T02:47:18.026Z,100515.55
2023-03-02T02:49:47.542Z,100516.55
2023-03-02T02:52:17.356Z,100515.77
2023-03-02T02:54:48.316Z,100514.73
2023-03-02T02:57:17.761Z,100513.42
2023-03-02T02:59:50.768Z,100513.30
2023-03-02T03:02:28.465Z,100512.23
2023-03-02T03:05:03.135Z,100512.37
2023-03-02T03:07:32.149Z,100516.11
2023-03-02T03:10:22.236Z,100514.70
2023-03-02T03:12:50.249Z,100509.81
2023-03-02T03:15:19.860Z,100510.27
2023-03-02T03:17:54.555Z,100507.96
2023-03-02T03:20:22.451Z,100504.16
2023-03-02T03:22:49.204Z,100503.39
2023-03-02T03:25:16.637Z,100504.61
2023-03-02T03:27:46.503Z,100505.27
2023-03-02T03:30:14.909Z,100507.80
2023-03-02T03:32:42.649Z,100508.52
2023-03-02T03:35:12.095Z,100504.60
2023-03-02T03:37:41.025Z,100503.87
2023-03-02T03:40:09.496Z,100504.41
2023-03-02T03:42:37.675Z,100508.38
2023-03-02T03:45:06.336Z,100506.85
2023-03-02T03:47:39.459Z,100506.67
2023-03-02T03:50:17.232Z,100502.70
2023-03-02T03:52:44.279Z,100501.12
2023-03-02T03:55:16.525Z,100502.98
2023-03-02T03:57:44.010Z,100500.08
2023-03-02T04:00:14.627Z,100499.04
2023-03-02T04:02:45.836Z,100497.60
2023-03-02T04:05:13.173Z,100496.83
2023-03-02T04:07:40.874Z,100493.67
2023-03-02T04:10:09.566Z,100501.20
2023-03-02T04:12:41.337Z,100500.48
2023-03-02T04:15:12.996Z,100494.86
2023-03-02T04:17:39.782Z,100492.91
2023-03-02T04:20:08.624Z,100491.98
2023-03-02T04:22:38.872Z,100491.36
2023-03-02T04:25:06.972Z,100494.17
2023-03-02T04:27:33.638Z,100493.83
2023-03-02T04:30:00.282Z,100489.95
2023-03-02T04:32:27.128Z,100487.97
2023-03-02T04:34:55.613Z,100485.81
2023-03-02T04:37:22.909Z,100487.48
2023-03-02T04:39:50.997Z,100485.98
2023-03-02T04:42:21.318Z,100491.23
2023-03-02T04:44:48.626Z,100488.44
2023-03-02T04:47:15.438Z,100488.44
2023-03-02T04:49:44.703Z,100482.70
2023-03-02T04:52:11.395Z,100485.13
2023-03-02T04:54:38.244Z,100483.43
2023-03-02T04:57:07.894Z,100484.33
2023-03-02T04:59:41.573Z,100481.86
2023-03-02T05:02:10.728Z,100481.41
2023-03-02T05:04:39.694Z,100485.86
2023-03-02T05:07:06.438Z,100489.26
2023-03-02T05:09:33.230Z,100487.96
2023-03-02T05:12:00.913Z,100484.39
2023-03-02T05:14:29.013Z,100485.20
2023-03-02T05:16:56.367Z,100489.18
2023-03-02T05:19:24.845Z,100493.66
2023-03-02T05:21:51.594Z,100496.59
2023-03-02T05:24:18.578Z,100502.27
2023-03-02T05:26:45.274Z,100505.52
2023-03-02T05:29:14.582Z,100502.12
2023-03-02T05:31:45.184Z,100504.79
2023-03-02T05:34:15.590Z,100507.36
2023-03-02T05:36:43.058Z,100510.05
2023-03-02T05:39:10.528Z,100509.51
2023-03-02T05:41:37.750Z,100515.98
2023-03-02T05:44:08.877Z,100514.45
2023-03-02T05:46:36.306Z,100517.64
2023-03-02T05:49:03.735Z,100520.30
2023-03-02T05:51:30.351Z,100527.27
2023-03-02T05:53:57.022Z,100528.17
2023-03-02T05:56:23.692Z,100529.63
2023-03-02T05:58:50.455Z,100534.46
2023-03-02T06:01:17.056Z,100531.80
2023-03-02T06:03:43.644Z,100534.98
2023-03-02T06:06:14.603Z,100533.42
2023-03-02T06:08:42.639Z,100534.33
2023-03-02T06:11:11.389Z,100537.00
2023-03-02T06:13:39.928Z,100537.86
2023-03-02T06:16:07.562Z,100540.61
2023-03-02T06:18:34.630Z,100539.59
2023-03-02T06:21:05.141Z,100537.66
2023-03-02T06:23:40.088Z,100537.84
2023-03-02T06:26:10.094Z,100538.02
2023-03-02T06:28:49.737Z,100542.27
2023-03-02T06:31:22.276Z,100541.78
2023-03-02T06:33:49.171Z,100545.20
2023-03-02T06:36:17.648Z,100546.45
2023-03-02T06:38:45.741Z,100547.65
2023-03-02T06:41:12.747Z,100540.63
2023-03-02T06:43:39.478Z,100537.02
2023-03-02T06:46:06.379Z,100533.59
2023-03-02T06:48:33.198Z,100532.39
2023-03-02T06:50:59.930Z,100531.63
2023-03-02T06:53:26.794Z,100530.52
2023-03-02T06:55:53.505Z,100531.27
2023-03-02T06:58:20.336Z,100532.08
2023-03-02T07:00:46.980Z,100530.59
2023-03-02T07:03:13.636Z,100529.41
2023-03-02T07:05:40.458Z,100527.30
2023-03-02T07:08:07.118Z,100526.36
2023-03-02T07:10:33.830Z,100527.96
2023-03-02T07:13:00.688Z,100525.84
2023-03-02T07:15:27.521Z,100529.98
2023-03-02T07:17:54.222Z,100532.32
2023-03-02T07:20:20.982Z,100532.48
2023-03-02T07:22:54.996Z,100529.59
2023-03-02T07:25:24.267Z,100526.38
2023-03-02T07:27:51.179Z,100525.59
2023-03-02T07:30:20.690Z,100528.59
2023-03-02T07:32:48.218Z,100528.67
2023-03-02T07:35:16.508Z,100527.84
2023-03-02T07:37:43.983Z,100527.35
2023-03-02T07:40:11.911Z,100523.77
2023-03-02T07:42:38.811Z,100521.12
2023-03-02T07:45:06.475Z,100519.48
2023-03-02T07:47:35.796Z,100519.08
2023-03-02T07:50:03.679Z,100521.46
2023-03-02T07:52:30.687Z,100523.09
2023-03-02T07:55:00.041Z,100524.63
2023-03-02T07:57:26.879Z,100523.65
2023-03-02T07:59:53.915Z,100523.04
2023-03-02T08:02:21.023Z,100522.49
2023-03-02T08:04:47.751Z,100521.50
2023-03-02T08:07:14.494Z,100514.95
2023-03-02T08:09:42.595Z,100518.28
2023-03-02T08:12:11.769Z,100516.86
2023-03-02T08:14:39.223Z,100515.67
2023-03-02T08:17:06.521Z,100514.20
2023-03-02T08:19:35.988Z,100516.25
2023-03-02T08:22:02.742Z,100518.06
2023-03-02T08:24:29.584Z,100518.89
2023-03-02T08:27:00.947Z,100522.59
2023-03-02T08:29:30.444Z,100524.71
2023-03-02T08:31:58.419Z,100521.11
2023-03-02T08:34:26.266Z,100520.20
2023-03-02T08:36:53.581Z,100518.54
2023-03-02T08:39:23.377Z,100521.51
2023-03-02T08:41:51.498Z,100519.14
2023-03-02T08:44:21.997Z,100517.36
2023-03-02T08:46:51.242Z,100517.66
2023-03-02T08:49:20.328Z,100518.48
2023-03-02T08:51:52.844Z,100515.48
2023-03-02T08:54:20.263Z,100513.91
2023-03-02T08:56:48.344Z,100512.34
2023-03-02T08:59:15.896Z,100510.21
2023-03-02T09:01:42.892Z,100510.20
2023-03-02T09:04:10.872Z,100511.59
2023-03-02T09:06:41.990Z,100512.89
2023-03-02T09:09:10.604Z,100514.64
2023-03-02T09:11:37.973Z,100508.59
2023-03-02T09:14:04.862Z,100505.14
2023-03-02T09:16:31.688Z,100505.77
2023-03-02T09:18:58.618Z,100503.38
2023-03-02T09:21:25.882Z,100502.86
2023-03-02T09:23:57.382Z,100497.09
2023-03-02T09:26:26.390Z,100498.14
2023-03-02T09:28:53.512Z,100496.41
2023-03-02T09:31:20.667Z,100497.45
2023-03-02T09:33:47.594Z,100496.63
2023-03-02T09:36:23.881Z,100498.77
2023-03-02T09:38:51.279Z,100501.11
2023-03-02T09:41:20.634Z,100500.23
2023-03-02T09:44:29.639Z,100502.89
2023-03-02T09:47:36.128Z,100505.48
2023-03-02T09:50:33.979Z,100501.83
2023-03-02T09:53:19.632Z,100500.73
2023-03-02T09:55:52.935Z,100496.77
2023-03-02T09:58:22.544Z,100495.52
2023-03-02T10:00:51.363Z,100491.59
2023-03-02T10:03:30.892Z,100492.41
2023-03-02T10:05:58.337Z,100492.55
2023-03-02T10:08:32.699Z,100492.59
2023-03-02T10:11:27.129Z,100491.67
2023-03-02T10:14:13.191Z,100491.25
2023-03-02T10:17:04.858Z,100488.33
2023-03-02T10:19:47.115Z,100484.42
2023-03-02T10:22:26.610Z,100479.25
2023-03-02T10:25:35.425Z,100475.34
2023-03-02T10:28:21.915Z,100479.93
2023-03-02T10:30:58.248Z,100476.22
2023-03-02T10:33:27.094Z,100473.77
2023-03-02T10:35:54.022Z,100477.67
2023-03-02T10:38:50.833Z,100472.88
2023-03-02T10:41:42.508Z,100475.30
2023-03-02T10:44:21.109Z,100473.60
2023-03-02T10:46:47.796Z,100472.75
2023-03-02T10:49:35.938Z,100466.42
2023-03-02T10:52:05.892Z,100466.81
2023-03-02T10:54:34.757Z,100464.88
2023-03-02T10:57:04.948Z,100463.36
2023-03-02T10:59:42.639Z,100462.89
2023-03-02T11:02:09.232Z,100456.48
2023-03-02T11:04:48.799Z,100451.33
2023-03-02T11:07:28.856Z,100451.73
2023-03-02T11:10:03.724Z,100448.58
2023-03-02T11:12:32.026Z,100444.70
2023-03-02T11:15:14.113Z,100445.55
2023-03-02T11:17:44.301Z,100444.40
2023-03-02T11:20:32.066Z,100445.77
2023-03-02T11:23:05.746Z,100442.63
2023-03-02T11:25:37.692Z,100444.43
2023-03-02T11:28:34.014Z,100441.55
2023-03-02T11:31:10.079Z,100440.52
2023-03-02T11:34:04.792Z,100439.48
2023-03-02T11:37:06.263Z,100438.60
2023-03-02T11:40:08.406Z,100441.12
2023-03-02T11:42:45.450Z,100441.35
2023-03-02T11:45:26.762Z,100443.09
2023-03-02T11:48:03.472Z,100441.14
2023-03-02T11:50:36.520Z,100440.35
2023-03-02T11:53:07.368Z,100440.38
2023-03-02T11:55:42.180Z,100436.11
2023-03-02T11:58:21.303Z,100432.42
2023-03-02T12:00:49.417Z,100432.54
2023-03-02T12:03:16.015Z,100429.27
2023-03-02T12:05:58.270Z,100427.79
2023-03-02T12:08:25.068Z,100430.56
2023-03-02T12:11:18.250Z,100426.59
2023-03-02T12:13:54.298Z,100424.05
2023-03-02T12:16:42.712Z,100420.20
2023-03-02T12:19:13.654Z,100420.89
2023-03-02T12:22:06.369Z,100422.48
2023-03-02T12:25:01.796Z,100418.53
2023-03-02T12:27:36.292Z,100420.38
2023-03-02T12:30:15.703Z,100421.55
2023-03-02T12:33:01.223Z,100420.96
2023-03-02T12:35:31.710Z,100421.59
2023-03-02T12:38:02.329Z,100420.91
2023-03-02T12:40:28.979Z,100418.08
2023-03-02T12:43:19.850Z,100422.94
2023-03-02T12:45:55.694Z,100425.15
2023-03-02T12:48:44.474Z,100421.65
2023-03-02T12:51:21.568Z,100418.09
2023-03-02T12:54:00.741Z,100415.00
2023-03-02T12:56:27.320Z,100411.29
2023-03-02T12:58:54.460Z,100406.56
2023-03-02T13:01:28.532Z,100408.05
2023-03-02T13:03:58.489Z,100408.19
2023-03-02T13:06:34.405Z,100407.55
2023-03-02T13:09:01.549Z,100407.89
2023-03-02T13:11:34.531Z,100406.63
2023-03-02T13:14:03.058Z,100403.44
2023-03-02T13:16:36.132Z,100401.71
2023-03-02T13:19:12.023Z,100400.84
2023-03-02T13:21:39.254Z,100392.66
2023-03-02T13:24:46.034Z,100389.73
2023-03-02T13:27:18.041Z,100393.04
2023-03-02T13:29:45.249Z,100389.27
2023-03-02T13:32:20.584Z,100389.28
2023-03-02T13:34:54.605Z,100390.38
2023-03-02T13:37:22.768Z,100389.39
2023-03-02T13:39:58.011Z,100381.83
2023-03-02T13:42:35.767Z,100377.85
2023-03-02T13:45:29.156Z,100372.58
2023-03-02T13:47:58.236Z,100373.34
2023-03-02T13:50:31.434Z,100366.85
2023-03-02T13:53:04.826Z,100362.94
2023-03-02T13:55:32.726Z,100359.50
2023-03-02T13:58:27.484Z,100358.63
2023-03-02T14:00:57.911Z,100359.15
2023-03-02T14:03:29.494Z,100356.86
2023-03-02T14:05:58.130Z,100350.18
2023-03-02T14:08:25.413Z,100345.73
2023-03-02T14:10:57.892Z,100342.62
2023-03-02T14:13:54.511Z,100342.61
2023-03-02T14:16:21.515Z,100334.95
2023-03-02T14:18:52.003Z,100335.77
2023-03-02T14:21:20.306Z,100336.64
2023-03-02T14:23:47.712Z,100333.73
2023-03-02T14:26:43.426Z,100333.50
2023-03-02T14:29:18.868Z,100330.44
2023-03-02T14:31:49.057Z,100326.05
2023-03-02T14:34:17.223Z,100324.33
2023-03-02T14:36:51.738Z,100324.11
2023-03-02T14:39:27.742Z,100322.92
2023-03-02T14:41:55.440Z,100325.16
2023-03-02T14:44:22.793Z,100322.23
2023-03-02T14:46:49.648Z,100321.38
2023-03-02T14:49:16.201Z,100321.81
2023-03-02T14:51:55.541Z,100319.71
2023-03-02T14:54:22.292Z,100318.95
2023-03-02T14:56:50.468Z,100317.89
2023-03-02T14:59:18.038Z,100319.27
2023-03-02T15:01:44.936Z,100319.66
2023-03-02T15:04:11.685Z,100315.14
2023-03-02T15:06:40.834Z,100313.38
2023-03-02T15:09:10.809Z,100310.79
2023-03-02T15:11:37.572Z,100307.77
2023-03-02T15:14:04.292Z,100307.59
2023-03-02T15:16:31.053Z,100306.18
2023-03-02T15:18:58.889Z,100301.59
2023-03-02T15:21:25.853Z,100301.01
2023-03-02T15:23:52.555Z,100298.98
2023-03-02T15:26:19.321Z,100298.52
2023-03-02T15:28:51.243Z,100301.02
2023-03-02T15:31:18.999Z,100299.98
2023-03-02T15:33:46.233Z,100296.23
2023-03-02T15:36:16.227Z,100294.43
2023-03-02T15:38:42.862Z,100293.11
2023-03-02T15:41:14.759Z,100296.40
2023-03-02T15:43:41.766Z,100295.04
2023-03-02T15:46:08.830Z,100298.29
2023-03-02T15:48:36.388Z,100301.45
2023-03-02T15:51:05.657Z,100306.55
2023-03-02T15:53:37.633Z,100305.08
2023-03-02T15:56:15.577Z,100306.86
2023-03-02T15:58:49.282Z,100304.05
2023-03-02T16:01:16.598Z,100305.95
2023-03-02T16:03:44.945Z,100304.52
2023-03-02T16:06:15.379Z,100305.11
2023-03-02T16:08:49.263Z,100306.25
2023-03-02T16:11:18.901Z,100309.44
2023-03-02T16:13:48.738Z,100310.23
2023-03-02T16:16:15.531Z,100311.15
2023-03-02T16:18:42.237Z,100312.33
2023-03-02T16:21:12.750Z,100312.59
2023-03-02T16:23:42.040Z,100313.33
2023-03-02T16:26:11.226Z,100310.51
2023-03-02T16:28:38.287Z,100311.35
2023-03-02T16:31:14.816Z,100310.36
2023-03-02T16:33:44.020Z,100307.34
2023-03-02T16:36:14.350Z,100313.17
2023-03-02T16:38:41.528Z,100315.80
2023-03-02T16:41:19.918Z,100317.48
2023-03-02T16:43:52.906Z,100314.98
2023-03-02T16:46:21.606Z,100316.13
2023-03-02T16:48:50.445Z,100316.79
2023-03-02T16:51:18.090Z,100320.48
2023-03-02T16:53:45.088Z,100320.50
2023-03-02T16:56:13.914Z,100322.32
2023-03-02T16:58:41.196Z,100323.48
2023-03-02T17:01:14.963Z,100323.30
2023-03-02T17:03:42.471Z,100324.45
2023-03-02T17:06:11.576Z,100326.66
2023-03-02T17:08:39.073Z,100329.15
2023-03-02T17:11:07.061Z,100330.77
2023-03-02T17:13:34.724Z,100333.02
2023-03-02T17:16:04.220Z,100335.70
2023-03-02T17:18:32.383Z,100335.79
2023-03-02T17:21:00.158Z,100337.20
2023-03-02T17:23:27.280Z,100336.06
2023-03-02T17:25:55.034Z,100334.55
2023-03-02T17:28:22.045Z,100335.48
2023-03-02T17:30:49.003Z,100335.30
2023-03-02T17:33:16.579Z,100338.19
2023-03-02T17:35:45.463Z,100336.16
2023-03-02T17:38:12.182Z,100333.42
2023-03-02T17:40:39.315Z,100337.35
2023-03-02T17:43:12.254Z,100336.45
2023-03-02T17:45:39.461Z,100331.97
2023-03-02T17:48:06.688Z,100334.48
2023-03-02T17:50:34.060Z,100335.92
2023-03-02T17:53:02.376Z,100333.15
2023-03-02T17:55:29.348Z,100332.00
2023-03-02T17:57:56.084Z,100330.47
2023-03-02T18:00:23.571Z,100330.20
2023-03-02T18:02:50.809Z,100327.65
2023-03-02T18:05:17.828Z,100326.23
2023-03-02T18:07:44.517Z,100326.46
2023-03-02T18:10:13.238Z,100323.15
2023-03-02T18:12:39.881Z,100325.10
2023-03-02T18:15:07.277Z,100323.23
2023-03-02T18:17:34.082Z,100323.38
2023-03-02T18:20:00.760Z,100322.84
2023-03-02T18:22:27.429Z,100323.98
2023-03-02T18:24:53.924Z,100324.20
2023-03-02T18:27:20.694Z,100327.85
2023-03-02T18:29:47.396Z,100325.94
2023-03-02T18:32:14.452Z,100329.11
2023-03-02T18:34:41.538Z,100328.59
2023-03-02T18:37:08.384Z,100331.29
2023-03-02T18:39:37.121Z,100330.94
2023-03-02T18:42:04.947Z,100331.77
2023-03-02T18:44:31.657Z,100333.14
2023-03-02T18:46:58.752Z,100333.85
2023-03-02T18:49:26.657Z,100337.52
2023-03-02T18:51:56.263Z,100335.85
2023-03-02T18:54:25.550Z,100335.24
2023-03-02T18:56:52.415Z,100340.67
2023-03-02T18:59:19.776Z,100342.64
2023-03-02T19:01:46.854Z,100341.80
2023-03-02T19:04:14.590Z,100341.25
2023-03-02T19:06:43.058Z,100341.92
2023-03-02T19:09:12.252Z,100345.61
2023-03-02T19:11:39.011Z,100345.49
2023-03-02T19:14:05.695Z,100344.73
2023-03-02T19:16:32.486Z,100345.57
2023-03-02T19:18:59.332Z,100347.48
2023-03-02T19:21:26.060Z,100347.63
2023-03-02T19:23:52.777Z,100351.09
2023-03-02T19:26:19.672Z,100358.30
2023-03-02T19:28:46.466Z,100356.48
2023-03-02T19:31:13.536Z,100360.86
2023-03-02T19:33:41.769Z,100364.82
2023-03-02T19:36:09.341Z,100363.21
2023-03-02T19:38:40.041Z,100362.77
2023-03-02T19:41:07.248Z,100365.30
2023-03-02T19:43:34.791Z,100365.86
2023-03-02T19:46:02.153Z,100363.24
2023-03-02T19:48:29.274Z,100362.86
2023-03-02T19:50:56.171Z,100365.31
2023-03-02T19:53:22.924Z,100361.60
2023-03-02T19:55:52.023Z,100361.45
2023-03-02T19:58:20.268Z,100361.70
2023-03-02T20:00:49.229Z,100364.02
2023-03-02T20:03:16.252Z,100361.10
2023-03-02T20:05:43.226Z,100359.60
2023-03-02T20:08:16.186Z,100359.57
2023-03-02T20:10:45.948Z,100362.29
2023-03-02T20:13:12.999Z,100361.67
2023-03-02T20:15:44.081Z,100363.02
2023-03-02T20:18:15.128Z,100362.17
2023-03-02T20:20:42.434Z,100363.41
2023-03-02T20:23:09.393Z,100360.45
2023-03-02T20:25:37.970Z,100360.63
2023-03-02T20:28:06.995Z,100364.80
2023-03-02T20:30:42.093Z,100364.34
2023-03-02T20:33:13.610Z,100364.67
2023-03-02T20:35:43.750Z,100363.40
2023-03-02T20:38:17.716Z,100359.19
2023-03-02T20:40:45.383Z,100360.05
2023-03-02T20:43:12.446Z,100359.34
2023-03-02T20:45:40.786Z,100359.83
2023-03-02T20:48:07.739Z,100359.57
2023-03-02T20:50:35.705Z,100356.95
2023-03-02T20:53:03.998Z,100357.09
2023-03-02T20:55:32.707Z,100355.63
2023-03-02T20:58:01.598Z,100352.55
2023-03-02T21:00:32.361Z,100351.77
2023-03-02T21:02:59.581Z,100350.23
2023-03-02T21:05:27.727Z,100345.59
2023-03-02T21:07:55.120Z,100345.80
2023-03-02T21:10:27.290Z,100350.55
2023-03-02T21:12:54.916Z,100350.42
2023-03-02T21:15:24.199Z,100349.13
2023-03-02T21:17:54.358Z,100347.85
2023-03-02T21:20:22.930Z,100340.38
2023-03-02T21:22:50.068Z,100341.34
2023-03-02T21:25:17.842Z,100338.41
2023-03-02T21:27:44.968Z,100338.60
2023-03-02T21:30:21.775Z,100334.64
2023-03-02T21:32:51.059Z,100333.00
2023-03-02T21:35:23.016Z,100329.30
2023-03-02T21:37:53.602Z,100327.52
2023-03-02T21:40:27.401Z,100326.71
2023-03-02T21:42:56.884Z,100324.11
2023-03-02T21:45:24.329Z,100323.97
2023-03-02T21:47:51.431Z,100323.20
2023-03-02T21:50:24.266Z,100320.14
2023-03-02T21:52:51.464Z,100320.08
2023-03-02T21:55:18.944Z,100318.25
2023-03-02T21:57:45.859Z,100319.05
2023-03-02T22:00:28.702Z,100314.61
2023-03-02T22:02:56.538Z,100320.09
2023-03-02T22:05:24.198Z,100319.44
2023-03-02T22:07:51.453Z,100317.70
2023-03-02T22:10:28.875Z,100316.83
2023-03-02T22:13:14.229Z,100315.77
2023-03-02T22:15:41.346Z,100316.05
2023-03-02T22:18:13.814Z,100312.51
2023-03-02T22:20:47.632Z,100312.75
2023-03-02T22:23:18.962Z,100320.52
2023-03-02T22:25:48.321Z,100316.86
2023-03-02T22:28:40.227Z,100317.21
2023-03-02T22:31:23.718Z,100320.41
2023-03-02T22:33:53.522Z,100315.38
2023-03-02T22:36:24.194Z,100314.53
2023-03-02T22:38:52.080Z,100315.64
2023-03-02T22:41:19.874Z,100315.52
2023-03-02T22:43:48.988Z,100317.09
2023-03-02T22:46:21.426Z,100316.55
2023-03-02T22:48:55.247Z,100318.92
2023-03-02T22:51:27.361Z,100318.02
2023-03-02T22:53:59.382Z,100315.64
2023-03-02T22:56:30.374Z,100318.47
2023-03-02T22:59:14.694Z,100317.02
2023-03-02T23:01:44.261Z,100317.33
2023-03-02T23:04:19.091Z,100319.42
2023-03-02T23:06:59.552Z,100315.61
2023-03-02T23:09:29.919Z,100316.46
2023-03-02T23:11:59.734Z,100319.48
2023-03-02T23:14:34.682Z,100321.98
2023-03-02T23:17:12.861Z,100319.86
2023-03-02T23:19:39.812Z,100319.08
2023-03-02T23:22:06.834Z,100309.93
2023-03-02T23:24:33.848Z,100311.78
2023-03-02T23:27:00.811Z,100311.87
2023-03-02T23:29:27.800Z,100311.45
2023-03-02T23:31:55.129Z,100314.16
2023-03-02T23:34:23.066Z,100315.05
2023-03-02T23:36:49.930Z,100314.79
2023-03-02T23:39:17.095Z,100311.17
2023-03-02T23:41:43.958Z,100312.68
2023-03-02T23:44:11.101Z,100309.92
2023-03-02T23:46:38.590Z,100302.89
2023-03-02T23:49:05.858Z,100300.19
2023-03-02T23:51:32.989Z,100298.48
2023-03-02T23:54:00.227Z,100296.06
2023-03-02T23:56:27.276Z,100298.05
2023-03-02T23:58:56.446Z,100296.36
